Time;durP1;ratioP1;P1;durP2;ratioP2;P2;SDS_P1;SDS_P2;PMS_P1;PMS_P2;Temp;Humidity;BMP_temperature;BMP_pressure;BME280_temperature;BME280_humidity;BME280_pressure;Samples;Min_cycle;Max_cycle;Signal;HPM_P1;HPM_P2
2021/09/20 00:00:54;;;;;;;5.30;4.32;;;;;;;;;;4991978;28;20353;-69
2021/09/20 00:03:19;;;;;;;5.97;4.37;;;;;;;;;;5010659;28;20186;-68
2021/09/20 00:05:44;;;;;;;5.90;4.20;;;;;;;;;;5009452;28;20606;-68
2021/09/20 00:08:09;;;;;;;6.30;4.20;;;;;;;;;;5010196;28;20424;-69
2021/09/20 00:10:34;;;;;;;6.13;4.30;;;;;;;;;;5009718;28;20447;-69
2021/09/20 00:13:00;;;;;;;6.20;4.55;;;;;;;;;;5009508;28;20194;-68
2021/09/20 00:15:25;;;;;;;5.30;4.65;;;;;;;;;;4994280;28;20408;-69
2021/09/20 00:17:50;;;;;;;6.60;4.50;;;;;;;;;;5010563;28;20270;-68
2021/09/20 00:20:16;;;;;;;5.63;4.90;;;;;;;;;;5008423;28;20199;-68
2021/09/20 00:22:41;;;;;;;5.50;4.60;;;;;;;;;;5006549;28;20559;-68
2021/09/20 00:25:07;;;;;;;5.38;4.45;;;;;;;;;;5010567;28;20190;-69
2021/09/20 00:27:32;;;;;;;4.10;3.75;;;;;;;;;;5013653;28;20196;-69
2021/09/20 00:29:57;;;;;;;5.57;4.32;;;;;;;;;;5020004;23;20306;-71
2021/09/20 00:32:23;;;;;;;7.07;4.30;;;;;;;;;;5011460;28;20210;-71
2021/09/20 00:34:48;;;;;;;6.30;4.80;;;;;;;;;;5005589;28;20223;-72
2021/09/20 00:37:13;;;;;;;5.15;4.68;;;;;;;;;;5008620;28;20262;-72
2021/09/20 00:39:39;;;;;;;6.25;4.90;;;;;;;;;;5006911;28;20739;-72
2021/09/20 00:42:04;;;;;;;5.00;4.25;;;;;;;;;;5005605;28;20183;-72
2021/09/20 00:44:29;;;;;;;6.18;5.22;;;;;;;;;;5012265;28;20179;-71
2021/09/20 00:46:55;;;;;;;5.28;4.78;;;;;;;;;;5010733;28;20220;-72
2021/09/20 00:49:20;;;;;;;6.95;5.57;;;;;;;;;;5009334;28;20203;-72
2021/09/20 00:51:45;;;;;;;5.32;4.82;;;;;;;;;;5006079;28;20183;-71
2021/09/20 00:54:10;;;;;;;5.65;4.55;;;;;;;;;;5008643;28;20297;-71
2021/09/20 00:56:36;;;;;;;4.82;4.40;;;;;;;;;;5008241;28;20182;-70
2021/09/20 00:59:01;;;;;;;5.28;4.78;;;;;;;;;;5010437;28;20199;-69
2021/09/20 01:01:27;;;;;;;5.00;4.50;;;;;;;;;;5001919;28;20214;-70
2021/09/20 01:03:52;;;;;;;5.03;4.53;;;;;;;;;;4984857;28;20570;-70
2021/09/20 01:06:17;;;;;;;6.82;5.50;;;;;;;;;;4984497;28;20187;-69
2021/09/20 01:08:43;;;;;;;6.50;4.90;;;;;;;;;;4997697;28;20186;-70
2021/09/20 01:11:08;;;;;;;6.45;4.85;;;;;;;;;;5006763;28;20179;-70
2021/09/20 01:13:33;;;;;;;8.35;4.82;;;;;;;;;;5011111;28;20201;-70
2021/09/20 01:15:58;;;;;;;6.90;4.95;;;;;;;;;;5008586;28;20182;-70
2021/09/20 01:18:23;;;;;;;7.28;5.57;;;;;;;;;;5010402;28;20598;-72
2021/09/20 01:20:48;;;;;;;5.30;4.43;;;;;;;;;;5005966;28;20187;-71
2021/09/20 01:23:14;;;;;;;7.20;4.95;;;;;;;;;;5010304;28;20249;-72
2021/09/20 01:25:42;;;;;;;6.03;4.55;;;;;;;;;;5005263;28;20277;-72
2021/09/20 01:28:07;;;;;;;5.13;4.47;;;;;;;;;;4996058;28;20564;-72
2021/09/20 01:30:33;;;;;;;6.55;5.45;;;;;;;;;;4994035;28;20219;-73
2021/09/20 01:32:58;;;;;;;5.55;4.93;;;;;;;;;;5006819;28;20274;-72
2021/09/20 01:35:24;;;;;;;5.60;5.10;;;;;;;;;;5007976;28;20683;-71
2021/09/20 01:37:49;;;;;;;6.20;4.93;;;;;;;;;;5008375;28;20178;-72
2021/09/20 01:40:15;;;;;;;8.15;5.03;;;;;;;;;;5010563;28;20195;-71
2021/09/20 01:42:41;;;;;;;5.77;5.13;;;;;;;;;;5008648;28;20175;-72
2021/09/20 01:45:06;;;;;;;8.38;5.30;;;;;;;;;;5008633;28;20224;-72
2021/09/20 01:47:32;;;;;;;6.05;5.15;;;;;;;;;;5005450;28;20604;-71
2021/09/20 01:49:57;;;;;;;6.25;5.40;;;;;;;;;;5008137;28;20210;-71
2021/09/20 01:52:22;;;;;;;8.02;5.22;;;;;;;;;;5005076;28;20344;-71
2021/09/20 01:54:47;;;;;;;6.63;5.15;;;;;;;;;;5001414;28;20653;-71
2021/09/20 01:57:13;;;;;;;6.75;5.40;;;;;;;;;;4985203;28;20261;-72
2021/09/20 01:59:38;;;;;;;7.50;5.15;;;;;;;;;;5002062;28;20198;-72
2021/09/20 02:02:03;;;;;;;6.20;5.60;;;;;;;;;;5007209;28;20236;-72
2021/09/20 02:04:28;;;;;;;7.45;5.00;;;;;;;;;;4989586;28;20178;-72
2021/09/20 02:06:53;;;;;;;7.40;5.20;;;;;;;;;;5008177;28;20254;-72
2021/09/20 02:09:18;;;;;;;9.88;6.30;;;;;;;;;;5009641;28;20569;-72
2021/09/20 02:11:44;;;;;;;6.13;5.00;;;;;;;;;;5012812;28;20178;-72
2021/09/20 02:14:09;;;;;;;5.70;4.88;;;;;;;;;;5011729;28;20219;-72
2021/09/20 02:16:35;;;;;;;6.13;4.90;;;;;;;;;;4993430;28;20183;-70
2021/09/20 02:19:00;;;;;;;8.38;5.95;;;;;;;;;;5011485;28;20718;-72
2021/09/20 02:21:25;;;;;;;8.15;5.00;;;;;;;;;;5010383;28;20878;-70
2021/09/20 02:23:51;;;;;;;8.43;5.20;;;;;;;;;;5007589;28;20286;-70
2021/09/20 02:26:16;;;;;;;6.07;5.47;;;;;;;;;;5009967;28;20202;-72
2021/09/20 02:28:42;;;;;;;7.75;5.28;;;;;;;;;;5013319;28;20274;-72
2021/09/20 02:31:07;;;;;;;6.55;4.88;;;;;;;;;;5009595;28;20656;-71
2021/09/20 02:33:33;;;;;;;7.32;4.65;;;;;;;;;;5014516;28;20209;-72
2021/09/20 02:35:58;;;;;;;7.63;5.05;;;;;;;;;;5008435;28;20179;-72
2021/09/20 02:38:24;;;;;;;7.45;4.97;;;;;;;;;;5002260;28;20216;-72
2021/09/20 02:40:49;;;;;;;6.90;5.72;;;;;;;;;;5009604;28;20242;-71
2021/09/20 02:43:14;;;;;;;5.85;5.22;;;;;;;;;;5011084;28;20179;-72
2021/09/20 02:45:39;;;;;;;6.95;6.22;;;;;;;;;;4994980;28;20205;-72
2021/09/20 02:48:04;;;;;;;5.93;5.32;;;;;;;;;;4994423;28;20253;-71
2021/09/20 02:50:29;;;;;;;6.63;5.25;;;;;;;;;;4995649;28;20608;-72
2021/09/20 02:52:55;;;;;;;7.78;4.88;;;;;;;;;;4995226;28;20586;-71
2021/09/20 02:55:20;;;;;;;6.23;5.43;;;;;;;;;;5012733;28;20190;-71
2021/09/20 02:57:45;;;;;;;9.27;6.53;;;;;;;;;;4995567;28;20313;-71
2021/09/20 03:00:11;;;;;;;6.20;5.43;;;;;;;;;;5007186;28;20201;-70
2021/09/20 03:02:37;;;;;;;6.75;5.57;;;;;;;;;;4992970;28;20249;-71
2021/09/20 03:05:02;;;;;;;6.57;5.55;;;;;;;;;;5010351;28;20656;-71
2021/09/20 03:07:28;;;;;;;6.53;5.00;;;;;;;;;;5005156;28;20179;-72
2021/09/20 03:09:53;;;;;;;8.60;5.70;;;;;;;;;;5014119;28;20213;-71
2021/09/20 03:12:18;;;;;;;7.37;5.53;;;;;;;;;;5011071;28;20227;-71
2021/09/20 03:14:43;;;;;;;6.83;5.77;;;;;;;;;;4995070;28;20175;-72
2021/09/20 03:17:09;;;;;;;8.27;6.03;;;;;;;;;;5006793;28;20549;-72
2021/09/20 03:19:34;;;;;;;8.87;5.60;;;;;;;;;;5005185;28;20286;-72
2021/09/20 03:21:59;;;;;;;8.17;5.53;;;;;;;;;;5002833;28;20175;-70
2021/09/20 03:24:24;;;;;;;7.87;5.50;;;;;;;;;;4986993;28;20197;-71
2021/09/20 03:26:49;;;;;;;7.73;5.53;;;;;;;;;;5009107;28;20183;-71
2021/09/20 03:29:15;;;;;;;7.37;6.00;;;;;;;;;;5006682;28;20219;-71
2021/09/20 03:31:40;;;;;;;7.53;5.90;;;;;;;;;;5005068;28;20178;-71
2021/09/20 03:34:05;;;;;;;7.00;5.40;;;;;;;;;;5012946;28;20679;-71
2021/09/20 03:36:30;;;;;;;7.13;5.67;;;;;;;;;;5006466;28;20574;-71
2021/09/20 03:38:56;;;;;;;7.40;5.90;;;;;;;;;;5012142;28;20723;-74
2021/09/20 03:41:21;;;;;;;6.43;5.57;;;;;;;;;;5007194;28;20627;-72
2021/09/20 03:43:46;;;;;;;6.30;5.70;;;;;;;;;;5010204;28;20179;-72
2021/09/20 03:46:11;;;;;;;6.63;5.70;;;;;;;;;;5007533;28;20197;-72
2021/09/20 03:48:37;;;;;;;6.73;5.20;;;;;;;;;;5005254;28;20269;-71
2021/09/20 03:51:03;;;;;;;7.57;5.20;;;;;;;;;;4988894;28;20210;-72
2021/09/20 03:53:28;;;;;;;7.90;5.50;;;;;;;;;;4988661;28;20199;-72
2021/09/20 03:55:53;;;;;;;7.43;5.33;;;;;;;;;;5007159;28;20167;-72
2021/09/20 03:58:18;;;;;;;8.37;6.20;;;;;;;;;;5007526;28;20183;-72
2021/09/20 04:00:43;;;;;;;6.47;5.47;;;;;;;;;;5005082;28;20257;-72
2021/09/20 04:03:09;;;;;;;7.63;5.13;;;;;;;;;;5001865;28;20186;-73
2021/09/20 04:05:34;;;;;;;5.95;5.35;;;;;;;;;;5004841;28;20638;-72
2021/09/20 04:08:00;;;;;;;8.60;5.50;;;;;;;;;;5011379;28;20186;-71
2021/09/20 04:10:25;;;;;;;7.10;5.17;;;;;;;;;;4990321;28;20195;-73
2021/09/20 04:12:50;;;;;;;7.90;5.13;;;;;;;;;;5013152;28;20198;-72
2021/09/20 04:15:15;;;;;;;6.17;5.47;;;;;;;;;;5003405;28;20251;-73
2021/09/20 04:17:40;;;;;;;6.53;4.90;;;;;;;;;;5002000;28;20175;-70
2021/09/20 04:20:06;;;;;;;6.87;5.40;;;;;;;;;;5006009;28;20199;-70
2021/09/20 04:22:31;;;;;;;7.07;5.97;;;;;;;;;;5007461;28;20641;-70
2021/09/20 04:24:56;;;;;;;6.53;5.47;;;;;;;;;;5009344;28;20179;-70
2021/09/20 04:27:22;;;;;;;7.43;5.83;;;;;;;;;;5007888;28;20191;-69
2021/09/20 04:29:48;;;;;;;8.37;5.43;;;;;;;;;;5008981;28;20218;-69
2021/09/20 04:32:13;;;;;;;8.67;7.70;;;;;;;;;;5005092;28;20644;-70
2021/09/20 04:34:38;;;;;;;7.47;5.65;;;;;;;;;;4990131;28;20179;-70
2021/09/20 04:37:03;;;;;;;7.37;6.10;;;;;;;;;;5003765;28;20301;-70
2021/09/20 04:39:29;;;;;;;8.30;5.80;;;;;;;;;;5009600;28;20202;-73
2021/09/20 04:41:54;;;;;;;6.00;5.40;;;;;;;;;;5013148;28;20170;-69
2021/09/20 04:44:19;;;;;;;8.87;6.13;;;;;;;;;;5009664;28;20183;-73
2021/09/20 04:46:44;;;;;;;7.78;5.82;;;;;;;;;;5005507;28;20178;-71
2021/09/20 04:49:10;;;;;;;7.03;6.33;;;;;;;;;;5010801;28;20195;-72
2021/09/20 04:51:35;;;;;;;7.83;6.40;;;;;;;;;;5010995;28;20230;-72
2021/09/20 04:54:00;;;;;;;6.53;5.83;;;;;;;;;;5010729;28;20672;-72
2021/09/20 04:56:25;;;;;;;6.63;5.77;;;;;;;;;;5008937;28;20179;-72
2021/09/20 04:58:51;;;;;;;7.33;6.10;;;;;;;;;;4992377;28;20171;-72
2021/09/20 05:01:16;;;;;;;7.87;5.97;;;;;;;;;;4987700;28;20182;-72
2021/09/20 05:03:41;;;;;;;7.53;6.57;;;;;;;;;;4995329;28;20189;-72
2021/09/20 05:06:07;;;;;;;8.67;6.03;;;;;;;;;;5006619;28;20198;-73
2021/09/20 05:08:32;;;;;;;11.03;6.17;;;;;;;;;;5008286;28;20191;-71
2021/09/20 05:10:58;;;;;;;7.23;6.47;;;;;;;;;;5007767;28;20703;-71
2021/09/20 05:13:23;;;;;;;8.17;6.43;;;;;;;;;;5008738;28;20198;-71
2021/09/20 05:15:48;;;;;;;8.40;6.87;;;;;;;;;;5003133;28;20182;-71
2021/09/20 05:18:14;;;;;;;9.60;7.03;;;;;;;;;;5004273;28;20637;-71
2021/09/20 05:20:39;;;;;;;10.00;7.87;;;;;;;;;;5001811;28;20222;-74
2021/09/20 05:23:04;;;;;;;9.13;7.70;;;;;;;;;;5005658;28;20179;-74
2021/09/20 05:25:30;;;;;;;9.27;7.07;;;;;;;;;;5004211;28;20236;-74
2021/09/20 05:27:55;;;;;;;10.53;7.77;;;;;;;;;;5004304;28;20182;-74
2021/09/20 05:30:20;;;;;;;8.83;6.97;;;;;;;;;;5001141;28;20207;-74
2021/09/20 05:32:46;;;;;;;8.17;6.30;;;;;;;;;;5005036;28;20204;-74
2021/09/20 05:35:12;;;;;;;10.90;7.37;;;;;;;;;;5007506;28;20182;-75
2021/09/20 05:37:37;;;;;;;10.50;7.23;;;;;;;;;;5003169;28;20182;-73
2021/09/20 05:40:03;;;;;;;8.23;7.13;;;;;;;;;;5009945;28;20198;-73
2021/09/20 05:42:28;;;;;;;7.33;6.60;;;;;;;;;;5004544;28;20186;-73
2021/09/20 05:44:53;;;;;;;7.90;6.80;;;;;;;;;;4988628;28;20182;-74
2021/09/20 05:47:18;;;;;;;10.53;7.80;;;;;;;;;;5011107;28;20171;-75
2021/09/20 05:49:43;;;;;;;10.00;8.20;;;;;;;;;;5010043;28;20281;-72
2021/09/20 05:52:09;;;;;;;10.63;8.13;;;;;;;;;;5010904;28;20633;-74
2021/09/20 05:54:34;;;;;;;10.00;8.23;;;;;;;;;;5009207;28;20253;-72
2021/09/20 05:56:59;;;;;;;9.47;7.70;;;;;;;;;;5006691;28;20203;-75
2021/09/20 05:59:24;;;;;;;8.90;7.03;;;;;;;;;;5009232;28;20194;-74
2021/09/20 06:01:50;;;;;;;10.57;7.83;;;;;;;;;;4997329;28;20218;-74
2021/09/20 06:04:15;;;;;;;10.43;7.33;;;;;;;;;;5007383;28;20182;-74
2021/09/20 06:06:40;;;;;;;9.87;7.43;;;;;;;;;;4998575;28;20226;-74
2021/09/20 06:09:05;;;;;;;11.40;8.23;;;;;;;;;;5004886;28;20206;-74
2021/09/20 06:11:30;;;;;;;8.80;7.90;;;;;;;;;;5005713;28;20242;-74
2021/09/20 06:13:57;;;;;;;9.90;7.60;;;;;;;;;;5006889;28;20203;-74
2021/09/20 06:16:22;;;;;;;9.03;7.13;;;;;;;;;;5003386;28;20703;-74
2021/09/20 06:18:48;;;;;;;11.17;8.57;;;;;;;;;;4999581;28;20265;-74
2021/09/20 06:21:13;;;;;;;10.70;8.20;;;;;;;;;;5003321;28;20561;-74
2021/09/20 06:23:38;;;;;;;10.13;7.50;;;;;;;;;;4981174;28;20210;-72
2021/09/20 06:26:03;;;;;;;9.23;6.57;;;;;;;;;;5000496;28;20445;-72
2021/09/20 06:28:28;;;;;;;10.57;7.70;;;;;;;;;;4998074;28;20186;-75
2021/09/20 06:30:54;;;;;;;9.33;8.03;;;;;;;;;;5021255;23;20226;-70
2021/09/20 06:33:19;;;;;;;9.03;7.50;;;;;;;;;;4993855;28;20208;-69
2021/09/20 06:35:44;;;;;;;8.70;7.50;;;;;;;;;;5012229;28;20208;-70
2021/09/20 06:38:10;;;;;;;9.97;7.67;;;;;;;;;;5009867;28;20206;-70
2021/09/20 06:40:35;;;;;;;9.73;7.80;;;;;;;;;;5008819;28;20277;-69
2021/09/20 06:43:00;;;;;;;11.07;7.80;;;;;;;;;;5013325;28;20189;-69
2021/09/20 06:45:25;;;;;;;7.83;7.03;;;;;;;;;;5008597;28;20609;-69
2021/09/20 06:47:50;;;;;;;10.43;7.80;;;;;;;;;;5009478;28;20183;-70
2021/09/20 06:50:16;;;;;;;10.80;7.57;;;;;;;;;;5006673;28;20202;-69
2021/09/20 06:52:41;;;;;;;8.27;7.27;;;;;;;;;;5007348;28;20206;-69
2021/09/20 06:55:07;;;;;;;12.53;8.10;;;;;;;;;;5007441;28;20170;-70
2021/09/20 06:57:32;;;;;;;10.13;7.67;;;;;;;;;;5018710;28;20261;-69
2021/09/20 06:59:57;;;;;;;10.67;8.13;;;;;;;;;;5012965;28;20191;-71
2021/09/20 07:02:23;;;;;;;9.57;7.20;;;;;;;;;;4992111;28;20218;-69
2021/09/20 07:04:48;;;;;;;10.03;7.50;;;;;;;;;;5011829;28;20233;-70
2021/09/20 07:07:17;;;;;;;10.50;7.90;;;;;;;;;;5018177;28;20663;-70
2021/09/20 07:09:42;;;;;;;10.38;6.97;;;;;;;;;;5003988;28;20740;-70
2021/09/20 07:12:07;;;;;;;11.57;7.45;;;;;;;;;;5010477;28;20298;-70
2021/09/20 07:14:33;;;;;;;10.38;7.43;;;;;;;;;;4991171;28;20166;-70
2021/09/20 07:16:58;;;;;;;10.15;7.53;;;;;;;;;;5003490;28;20659;-70
2021/09/20 07:19:23;;;;;;;8.68;7.63;;;;;;;;;;4981936;28;20711;-70
2021/09/20 07:21:48;;;;;;;9.02;7.35;;;;;;;;;;5004886;28;20680;-70
2021/09/20 07:24:14;;;;;;;8.20;7.22;;;;;;;;;;4999771;28;20183;-70
2021/09/20 07:26:39;;;;;;;11.05;7.80;;;;;;;;;;5002328;28;20187;-69
2021/09/20 07:29:04;;;;;;;10.02;7.88;;;;;;;;;;4999887;28;20192;-69
2021/09/20 07:31:30;;;;;;;13.15;7.60;;;;;;;;;;4999605;28;20207;-70
2021/09/20 07:33:55;;;;;;;10.38;7.78;;;;;;;;;;5000567;28;20240;-69
2021/09/20 07:36:20;;;;;;;9.38;7.40;;;;;;;;;;5002607;28;20179;-69
2021/09/20 07:38:45;;;;;;;9.90;8.90;;;;;;;;;;4999275;28;20190;-70
2021/09/20 07:41:11;;;;;;;9.43;7.65;;;;;;;;;;4999742;28;20213;-69
2021/09/20 07:43:36;;;;;;;9.10;7.00;;;;;;;;;;4998250;28;20198;-70
2021/09/20 07:46:02;;;;;;;11.20;8.30;;;;;;;;;;5000839;28;20265;-70
2021/09/20 07:48:27;;;;;;;8.95;8.02;;;;;;;;;;4997570;28;20540;-70
2021/09/20 07:50:53;;;;;;;10.32;8.55;;;;;;;;;;5001883;28;20210;-69
2021/09/20 07:53:18;;;;;;;11.05;8.25;;;;;;;;;;4999201;28;20205;-69
2021/09/20 07:55:44;;;;;;;9.57;8.57;;;;;;;;;;4999683;28;20213;-70
2021/09/20 07:58:09;;;;;;;9.68;8.55;;;;;;;;;;4993458;28;20283;-69
2021/09/20 08:00:35;;;;;;;10.40;9.00;;;;;;;;;;4996819;28;20211;-69
2021/09/20 08:03:01;;;;;;;11.40;8.68;;;;;;;;;;4996998;28;20197;-70
2021/09/20 08:05:26;;;;;;;9.85;8.55;;;;;;;;;;4998548;28;20179;-70
2021/09/20 08:07:51;;;;;;;10.02;8.75;;;;;;;;;;4999718;28;20649;-69
2021/09/20 08:10:16;;;;;;;9.68;8.68;;;;;;;;;;4998142;28;20235;-69
2021/09/20 08:12:41;;;;;;;14.43;9.48;;;;;;;;;;4999308;28;20352;-69
2021/09/20 08:15:07;;;;;;;13.73;10.32;;;;;;;;;;5000796;28;20605;-70
2021/09/20 08:17:33;;;;;;;10.70;9.18;;;;;;;;;;4998754;28;20539;-70
2021/09/20 08:19:59;;;;;;;10.35;9.25;;;;;;;;;;4997794;28;20199;-70
2021/09/20 08:22:24;;;;;;;10.88;9.00;;;;;;;;;;4996523;28;20222;-69
2021/09/20 08:24:50;;;;;;;11.38;10.23;;;;;;;;;;5000487;28;20175;-70
2021/09/20 08:27:15;;;;;;;13.60;8.93;;;;;;;;;;4998479;28;20176;-70
2021/09/20 08:29:40;;;;;;;10.70;9.60;;;;;;;;;;4994961;28;20223;-69
2021/09/20 08:32:07;;;;;;;11.48;9.70;;;;;;;;;;4995045;28;20183;-69
2021/09/20 08:34:32;;;;;;;12.80;9.35;;;;;;;;;;5005057;28;20182;-70
2021/09/20 08:36:59;;;;;;;9.88;8.88;;;;;;;;;;4993648;28;20175;-69
2021/09/20 08:39:24;;;;;;;10.68;8.20;;;;;;;;;;5000545;28;20199;-70
2021/09/20 08:41:50;;;;;;;10.52;8.95;;;;;;;;;;5004944;28;20187;-71
2021/09/20 08:44:15;;;;;;;8.90;8.00;;;;;;;;;;5000853;28;20326;-71
2021/09/20 08:46:40;;;;;;;8.68;7.80;;;;;;;;;;4990429;28;20234;-70
2021/09/20 08:49:06;;;;;;;8.95;8.05;;;;;;;;;;4985751;28;20280;-69
2021/09/20 08:51:31;;;;;;;8.68;7.78;;;;;;;;;;4993971;28;20182;-70
2021/09/20 08:53:56;;;;;;;8.95;7.80;;;;;;;;;;4991172;28;20217;-69
2021/09/20 08:56:21;;;;;;;8.32;7.22;;;;;;;;;;4990124;28;20270;-70
2021/09/20 08:58:47;;;;;;;8.52;7.60;;;;;;;;;;4998286;28;20179;-70
2021/09/20 09:01:12;;;;;;;8.80;7.55;;;;;;;;;;5003071;28;20209;-72
2021/09/20 09:03:37;;;;;;;10.32;9.30;;;;;;;;;;4995218;28;20640;-71
2021/09/20 09:06:02;;;;;;;8.52;7.72;;;;;;;;;;4997762;28;20664;-70
2021/09/20 09:08:35;;;;;;;8.20;7.40;;;;;;;;;;4973023;28;20183;-69
2021/09/20 09:11:03;;;;;;;9.55;8.55;;;;;;;;;;4990260;28;20206;-71
2021/09/20 09:13:34;;;;;;;8.95;8.05;;;;;;;;;;4988729;28;20257;-71
2021/09/20 09:16:10;;;;;;;9.32;8.43;;;;;;;;;;4994471;28;20181;-70
2021/09/20 09:18:55;;;;;;;10.80;8.73;;;;;;;;;;4990447;28;20189;-68
2021/09/20 09:21:20;;;;;;;8.52;7.65;;;;;;;;;;4997117;28;20202;-67
2021/09/20 09:23:46;;;;;;;7.68;6.97;;;;;;;;;;4993551;28;20229;-68
2021/09/20 09:26:20;;;;;;;8.38;7.47;;;;;;;;;;4995041;28;20583;-67
2021/09/20 09:28:51;;;;;;;7.90;7.05;;;;;;;;;;4990708;28;20568;-71
2021/09/20 09:31:17;;;;;;;7.75;7.00;;;;;;;;;;4993181;28;20218;-68
2021/09/20 09:33:44;;;;;;;8.63;6.68;;;;;;;;;;5003657;28;20566;-70
2021/09/20 09:36:10;;;;;;;7.03;6.28;;;;;;;;;;4976757;28;20187;-68
2021/09/20 09:38:36;;;;;;;8.65;6.43;;;;;;;;;;4991642;28;20249;-68
2021/09/20 09:41:03;;;;;;;7.60;6.37;;;;;;;;;;4992506;28;20676;-68
2021/09/20 09:43:35;;;;;;;7.68;5.55;;;;;;;;;;4971718;28;21015;-68
2021/09/20 09:46:16;;;;;;;5.45;4.95;;;;;;;;;;4990984;28;20317;-69
2021/09/20 09:48:43;;;;;;;6.45;5.85;;;;;;;;;;4990054;28;20663;-68
2021/09/20 09:51:08;;;;;;;5.70;4.93;;;;;;;;;;4989035;28;20293;-70
2021/09/20 09:53:38;;;;;;;7.17;5.10;;;;;;;;;;4991129;28;20579;-68
2021/09/20 09:56:17;;;;;;;5.70;5.20;;;;;;;;;;4994467;28;22043;-68
2021/09/20 09:58:55;;;;;;;7.38;5.72;;;;;;;;;;4992404;28;20546;-67
2021/09/20 10:01:22;;;;;;;6.40;5.55;;;;;;;;;;4996345;28;20202;-70
2021/09/20 10:04:23;;;;;;;5.57;5.00;;;;;;;;;;4999085;28;20190;-68
2021/09/20 10:06:51;;;;;;;8.02;5.65;;;;;;;;;;4914248;29;20189;-68
2021/09/20 10:09:18;;;;;;;6.53;5.85;;;;;;;;;;4958629;28;20668;-67
2021/09/20 10:11:46;;;;;;;7.63;5.55;;;;;;;;;;5002592;28;20215;-68
2021/09/20 10:14:12;;;;;;;5.80;5.20;;;;;;;;;;4978978;28;20237;-70
2021/09/20 10:16:37;;;;;;;7.05;5.68;;;;;;;;;;4988597;28;20863;-70
2021/09/20 10:19:03;;;;;;;6.70;5.97;;;;;;;;;;4994926;28;20633;-69
2021/09/20 10:21:28;;;;;;;5.78;5.18;;;;;;;;;;4997067;28;20541;-69
2021/09/20 10:23:53;;;;;;;7.53;5.50;;;;;;;;;;4976141;28;20707;-69
2021/09/20 10:26:18;;;;;;;5.63;4.32;;;;;;;;;;4989443;28;20974;-69
2021/09/20 10:28:46;;;;;;;5.18;4.68;;;;;;;;;;4989988;28;20218;-69
2021/09/20 10:31:11;;;;;;;5.35;4.85;;;;;;;;;;4997127;28;20234;-71
2021/09/20 10:33:37;;;;;;;5.22;4.72;;;;;;;;;;4994998;28;20245;-69
2021/09/20 10:36:02;;;;;;;5.53;5.03;;;;;;;;;;4979284;28;20580;-69
2021/09/20 10:38:29;;;;;;;6.25;4.43;;;;;;;;;;4994007;28;20424;-70
2021/09/20 10:41:10;;;;;;;5.88;4.65;;;;;;;;;;4993521;28;20760;-70
2021/09/20 10:43:36;;;;;;;5.50;5.00;;;;;;;;;;4994395;28;20565;-69
2021/09/20 10:46:03;;;;;;;5.22;4.72;;;;;;;;;;4978686;28;20184;-72
2021/09/20 10:48:33;;;;;;;5.22;4.82;;;;;;;;;;4992617;28;20182;-68
2021/09/20 10:51:02;;;;;;;5.20;4.30;;;;;;;;;;4992946;28;20859;-69
2021/09/20 10:53:32;;;;;;;5.43;4.72;;;;;;;;;;4999997;28;20234;-69
2021/09/20 10:56:03;;;;;;;5.20;4.75;;;;;;;;;;4993705;28;20748;-68
2021/09/20 10:58:32;;;;;;;6.32;4.80;;;;;;;;;;4993580;28;20253;-69
2021/09/20 11:01:16;;;;;;;5.53;5.03;;;;;;;;;;4996660;28;20219;-69
2021/09/20 11:03:41;;;;;;;6.70;4.45;;;;;;;;;;4995183;28;20183;-69
2021/09/20 11:06:25;;;;;;;5.47;4.97;;;;;;;;;;4994137;28;20191;-68
2021/09/20 11:09:02;;;;;;;6.03;5.43;;;;;;;;;;4992769;28;20213;-69
2021/09/20 11:11:37;;;;;;;4.78;4.38;;;;;;;;;;4994103;28;20191;-69
2021/09/20 11:14:03;;;;;;;4.68;4.28;;;;;;;;;;4995420;28;20207;-71
2021/09/20 11:16:45;;;;;;;5.53;4.90;;;;;;;;;;4999418;28;20894;-68
2021/09/20 11:19:33;;;;;;;5.40;4.57;;;;;;;;;;4989341;28;20183;-69
2021/09/20 11:22:11;;;;;;;4.70;4.22;;;;;;;;;;4967567;28;20197;-69
2021/09/20 11:24:44;;;;;;;5.45;4.78;;;;;;;;;;5001005;28;20178;-69
2021/09/20 11:27:22;;;;;;;5.50;4.45;;;;;;;;;;4999566;28;20195;-71
2021/09/20 11:29:55;;;;;;;5.25;4.75;;;;;;;;;;4974346;28;20711;-69
2021/09/20 11:32:20;;;;;;;6.85;4.90;;;;;;;;;;4997479;28;20195;-68
2021/09/20 11:34:48;;;;;;;4.55;4.07;;;;;;;;;;5002503;28;20189;-68
2021/09/20 11:37:14;;;;;;;4.95;4.55;;;;;;;;;;4983680;28;20225;-68
2021/09/20 11:39:46;;;;;;;5.32;4.82;;;;;;;;;;5003078;28;20202;-68
2021/09/20 11:42:12;;;;;;;5.03;4.53;;;;;;;;;;4977710;28;20176;-68
2021/09/20 11:44:45;;;;;;;5.30;4.80;;;;;;;;;;5006207;28;21152;-71
2021/09/20 11:47:10;;;;;;;4.32;3.92;;;;;;;;;;4997392;28;20178;-70
2021/09/20 11:49:35;;;;;;;5.57;4.97;;;;;;;;;;5000739;28;20198;-69
2021/09/20 11:52:01;;;;;;;5.00;4.53;;;;;;;;;;4992499;28;20447;-69
2021/09/20 11:54:28;;;;;;;5.97;4.72;;;;;;;;;;4998761;28;20491;-70
2021/09/20 11:56:53;;;;;;;6.20;4.22;;;;;;;;;;4997229;28;20607;-70
2021/09/20 11:59:19;;;;;;;4.67;4.10;;;;;;;;;;4991433;28;20199;-69
2021/09/20 12:01:45;;;;;;;4.70;4.25;;;;;;;;;;4992958;28;20432;-69
2021/09/20 12:04:10;;;;;;;6.10;3.95;;;;;;;;;;4994579;28;20346;-70
2021/09/20 12:06:35;;;;;;;5.67;4.10;;;;;;;;;;5001148;28;20228;-70
2021/09/20 12:09:03;;;;;;;7.47;4.13;;;;;;;;;;4992647;28;20436;-70
2021/09/20 12:11:28;;;;;;;7.75;4.95;;;;;;;;;;4994792;28;21159;-70
2021/09/20 12:13:54;;;;;;;6.60;4.80;;;;;;;;;;4993398;28;20242;-69
2021/09/20 12:16:19;;;;;;;5.22;4.72;;;;;;;;;;4995259;28;20771;-69
2021/09/20 12:18:44;;;;;;;5.03;4.53;;;;;;;;;;4997613;28;20660;-69
2021/09/20 12:21:10;;;;;;;4.60;4.20;;;;;;;;;;4996945;28;20195;-70
2021/09/20 12:23:37;;;;;;;5.68;5.13;;;;;;;;;;4995196;28;20179;-69
2021/09/20 12:26:03;;;;;;;4.90;4.40;;;;;;;;;;4994009;28;20293;-69
2021/09/20 12:28:30;;;;;;;5.43;4.38;;;;;;;;;;4997157;28;20262;-69
2021/09/20 12:30:58;;;;;;;5.28;4.78;;;;;;;;;;5002222;23;20227;-72
2021/09/20 12:33:23;;;;;;;5.07;4.68;;;;;;;;;;4991738;28;20195;-71
2021/09/20 12:35:48;;;;;;;5.28;4.78;;;;;;;;;;4979342;28;20187;-72
2021/09/20 12:38:19;;;;;;;6.13;5.23;;;;;;;;;;4972027;28;21538;-73
2021/09/20 12:40:45;;;;;;;7.10;4.30;;;;;;;;;;4963392;28;22462;-70
2021/09/20 12:43:15;;;;;;;5.82;4.68;;;;;;;;;;4954781;28;20738;-73
2021/09/20 12:45:46;;;;;;;5.72;5.13;;;;;;;;;;4951756;28;20227;-74
2021/09/20 12:48:12;;;;;;;5.20;4.70;;;;;;;;;;4953655;28;20180;-71
2021/09/20 12:50:42;;;;;;;5.80;4.65;;;;;;;;;;4969321;28;20215;-72
2021/09/20 12:53:07;;;;;;;4.60;4.20;;;;;;;;;;4971605;28;20208;-72
2021/09/20 12:55:37;;;;;;;7.65;5.25;;;;;;;;;;4968094;28;20525;-72
2021/09/20 12:58:04;;;;;;;6.28;5.68;;;;;;;;;;4953927;28;20590;-72
2021/09/20 13:00:34;;;;;;;6.65;5.35;;;;;;;;;;4954748;28;20211;-71
2021/09/20 13:03:08;;;;;;;7.05;4.88;;;;;;;;;;4937725;28;20192;-71
2021/09/20 13:06:02;;;;;;;4.97;4.47;;;;;;;;;;4957797;28;20219;-71
2021/09/20 13:08:28;;;;;;;17.83;6.03;;;;;;;;;;4959178;28;20192;-71
2021/09/20 13:10:53;;;;;;;5.78;4.53;;;;;;;;;;4960660;28;20230;-72
2021/09/20 13:13:34;;;;;;;6.03;5.28;;;;;;;;;;4952216;28;20216;-71
2021/09/20 13:16:00;;;;;;;6.07;5.45;;;;;;;;;;4956902;28;20184;-72
2021/09/20 13:18:25;;;;;;;10.70;5.15;;;;;;;;;;4952410;28;20231;-72
2021/09/20 13:20:53;;;;;;;6.32;5.18;;;;;;;;;;4939765;28;20575;-73
2021/09/20 13:23:18;;;;;;;6.35;4.82;;;;;;;;;;4952784;28;20239;-73
2021/09/20 13:25:49;;;;;;;4.93;4.43;;;;;;;;;;4953321;28;20196;-72
2021/09/20 13:28:19;;;;;;;5.38;4.90;;;;;;;;;;4952286;28;20217;-73
2021/09/20 13:30:48;;;;;;;6.18;5.03;;;;;;;;;;4956116;28;20211;-73
2021/09/20 13:33:14;;;;;;;7.43;5.28;;;;;;;;;;4955317;28;20216;-73
2021/09/20 13:35:43;;;;;;;8.23;5.20;;;;;;;;;;4959662;28;20192;-73
2021/09/20 13:38:08;;;;;;;4.75;4.35;;;;;;;;;;4956519;28;20685;-73
2021/09/20 13:40:33;;;;;;;6.43;5.00;;;;;;;;;;4953464;28;20211;-73
2021/09/20 13:42:58;;;;;;;7.10;4.93;;;;;;;;;;4954201;28;21997;-72
2021/09/20 13:45:24;;;;;;;5.47;4.97;;;;;;;;;;4952419;28;20196;-72
2021/09/20 13:47:49;;;;;;;7.95;5.15;;;;;;;;;;4951016;28;20945;-72
2021/09/20 13:50:15;;;;;;;7.70;5.15;;;;;;;;;;4952419;28;20724;-72
2021/09/20 13:52:40;;;;;;;7.57;5.13;;;;;;;;;;4955502;28;20302;-72
2021/09/20 13:55:07;;;;;;;7.13;5.05;;;;;;;;;;4936313;28;20231;-72
2021/09/20 13:57:32;;;;;;;5.40;4.90;;;;;;;;;;4952197;28;20189;-73
2021/09/20 13:59:57;;;;;;;6.23;4.90;;;;;;;;;;4956315;28;20714;-73
2021/09/20 14:02:23;;;;;;;5.75;4.95;;;;;;;;;;4955074;28;20520;-73
2021/09/20 14:04:48;;;;;;;6.55;5.05;;;;;;;;;;4951115;28;20183;-71
2021/09/20 14:07:14;;;;;;;7.13;5.03;;;;;;;;;;4953428;28;20180;-71
2021/09/20 14:09:39;;;;;;;7.53;5.45;;;;;;;;;;4956420;28;20176;-71
2021/09/20 14:12:04;;;;;;;6.22;5.60;;;;;;;;;;4958395;28;20251;-71
2021/09/20 14:14:29;;;;;;;5.88;5.32;;;;;;;;;;4951885;28;20254;-73
2021/09/20 14:16:56;;;;;;;6.80;6.10;;;;;;;;;;4962464;28;20176;-72
2021/09/20 14:19:22;;;;;;;7.05;6.05;;;;;;;;;;4965856;28;20453;-72
2021/09/20 14:21:47;;;;;;;6.22;5.63;;;;;;;;;;4954846;28;20203;-73
2021/09/20 14:24:12;;;;;;;7.50;6.30;;;;;;;;;;4950201;28;20246;-72
2021/09/20 14:26:37;;;;;;;7.80;6.33;;;;;;;;;;4955226;28;20192;-72
2021/09/20 14:29:02;;;;;;;7.17;6.30;;;;;;;;;;4955868;28;20435;-73
2021/09/20 14:31:28;;;;;;;8.20;5.90;;;;;;;;;;4953490;28;21046;-72
2021/09/20 14:33:53;;;;;;;7.50;6.10;;;;;;;;;;4951454;28;20466;-72
2021/09/20 14:36:18;;;;;;;7.53;6.07;;;;;;;;;;4955826;28;21819;-72